sensor_id;sensor_type;location;lat;lon;timestamp;P1;durP1;ratioP1;P2;durP2;ratioP2
38220;SDS011;24023;51.280;7.148;2022-07-21T00:00:11;4.8;;;4.3;;
38220;SDS011;24023;51.280;7.148;2022-07-21T00:05:06;4.8;;;4.3;;
38220;SDS011;24023;51.280;7.148;2022-07-21T00:10:08;7.7;;;5.4;;
38220;SDS011;24023;51.280;7.148;2022-07-21T00:15:07;7.7;;;5.4;;
38220;SDS011;24023;51.280;7.148;2022-07-21T00:20:08;7.5;;;5.6;;
38220;SDS011;24023;51.280;7.148;2022-07-21T00:25:06;7.5;;;5.6;;
38220;SDS011;24023;51.280;7.148;2022-07-21T00:30:09;7.5;;;5.6;;
38220;SDS011;24023;51.280;7.148;2022-07-21T00:35:07;6.9;;;5.7;;
38220;SDS011;24023;51.280;7.148;2022-07-21T00:40:08;6.9;;;5.7;;
38220;SDS011;24023;51.280;7.148;2022-07-21T00:45:10;6.0;;;5.4;;
38220;SDS011;24023;51.280;7.148;2022-07-21T00:50:09;6.0;;;5.4;;
38220;SDS011;24023;51.280;7.148;2022-07-21T00:55:07;6.0;;;5.4;;
38220;SDS011;24023;51.280;7.148;2022-07-21T01:00:12;7.0;;;5.8;;
38220;SDS011;24023;51.280;7.148;2022-07-21T01:05:08;7.0;;;5.8;;
38220;SDS011;24023;51.280;7.148;2022-07-21T01:10:08;7.1;;;6.0;;
38220;SDS011;24023;51.280;7.148;2022-07-21T01:15:08;7.1;;;6.0;;
38220;SDS011;24023;51.280;7.148;2022-07-21T01:20:09;7.0;;;6.2;;
38220;SDS011;24023;51.280;7.148;2022-07-21T01:25:06;7.0;;;6.2;;
38220;SDS011;24023;51.280;7.148;2022-07-21T01:30:10;7.0;;;6.2;;
38220;SDS011;24023;51.280;7.148;2022-07-21T01:35:07;8.1;;;7.3;;
38220;SDS011;24023;51.280;7.148;2022-07-21T01:45:09;13.5;;;9.9;;
38220;SDS011;24023;51.280;7.148;2022-07-21T01:50:07;13.0;;;10.3;;
38220;SDS011;24023;51.280;7.148;2022-07-21T01:55:06;13.0;;;10.3;;
38220;SDS011;24023;51.280;7.148;2022-07-21T02:00:11;13.0;;;10.3;;
38220;SDS011;24023;51.280;7.148;2022-07-21T02:05:06;13.7;;;9.9;;
38220;SDS011;24023;51.280;7.148;2022-07-21T02:10:07;8.3;;;7.4;;
38220;SDS011;24023;51.280;7.148;2022-07-21T02:15:07;8.3;;;7.4;;
38220;SDS011;24023;51.280;7.148;2022-07-21T02:20:08;7.1;;;6.4;;
38220;SDS011;24023;51.280;7.148;2022-07-21T02:25:06;7.1;;;6.4;;
38220;SDS011;24023;51.280;7.148;2022-07-21T02:30:09;5.3;;;4.8;;
38220;SDS011;24023;51.280;7.148;2022-07-21T02:35:07;5.3;;;4.8;;
38220;SDS011;24023;51.280;7.148;2022-07-21T02:40:08;7.0;;;5.4;;
38220;SDS011;24023;51.280;7.148;2022-07-21T02:45:10;7.0;;;5.4;;
38220;SDS011;24023;51.280;7.148;2022-07-21T02:50:08;5.4;;;4.6;;
38220;SDS011;24023;51.280;7.148;2022-07-21T02:55:06;5.4;;;4.6;;
38220;SDS011;24023;51.280;7.148;2022-07-21T03:00:10;5.0;;;4.1;;
38220;SDS011;24023;51.280;7.148;2022-07-21T03:05:07;5.0;;;4.1;;
38220;SDS011;24023;51.280;7.148;2022-07-21T03:10:08;5.0;;;4.1;;
38220;SDS011;24023;51.280;7.148;2022-07-21T03:15:07;4.4;;;3.7;;
38220;SDS011;24023;51.280;7.148;2022-07-21T03:20:08;4.4;;;3.7;;
38220;SDS011;24023;51.280;7.148;2022-07-21T03:25:06;5.2;;;4.7;;
38220;SDS011;24023;51.280;7.148;2022-07-21T03:30:09;5.2;;;4.7;;
38220;SDS011;24023;51.280;7.148;2022-07-21T03:35:06;5.2;;;4.7;;
38220;SDS011;24023;51.280;7.148;2022-07-21T03:40:08;5.0;;;4.5;;
38220;SDS011;24023;51.280;7.148;2022-07-21T03:45:09;5.0;;;4.5;;
38220;SDS011;24023;51.280;7.148;2022-07-21T03:50:07;6.1;;;5.6;;
38220;SDS011;24023;51.280;7.148;2022-07-21T03:55:09;6.1;;;5.6;;
38220;SDS011;24023;51.280;7.148;2022-07-21T04:00:12;6.9;;;6.2;;
38220;SDS011;24023;51.280;7.148;2022-07-21T04:05:06;6.9;;;6.2;;
38220;SDS011;24023;51.280;7.148;2022-07-21T04:10:08;6.9;;;6.2;;
38220;SDS011;24023;51.280;7.148;2022-07-21T04:15:08;7.8;;;7.0;;
38220;SDS011;24023;51.280;7.148;2022-07-21T04:20:08;10.1;;;9.1;;
38220;SDS011;24023;51.280;7.148;2022-07-21T04:25:08;10.1;;;9.1;;
38220;SDS011;24023;51.280;7.148;2022-07-21T04:30:10;10.1;;;9.0;;
38220;SDS011;24023;51.280;7.148;2022-07-21T04:35:06;10.1;;;9.0;;
38220;SDS011;24023;51.280;7.148;2022-07-21T04:40:08;10.1;;;9.0;;
38220;SDS011;24023;51.280;7.148;2022-07-21T04:45:12;10.3;;;9.3;;
38220;SDS011;24023;51.280;7.148;2022-07-21T04:50:08;10.3;;;9.3;;
38220;SDS011;24023;51.280;7.148;2022-07-21T04:55:06;10.9;;;9.8;;
38220;SDS011;24023;51.280;7.148;2022-07-21T05:00:11;10.9;;;9.8;;
38220;SDS011;24023;51.280;7.148;2022-07-21T05:05:06;10.9;;;9.8;;
38220;SDS011;24023;51.280;7.148;2022-07-21T05:10:08;11.6;;;10.4;;
38220;SDS011;24023;51.280;7.148;2022-07-21T05:15:08;11.6;;;10.4;;
38220;SDS011;24023;51.280;7.148;2022-07-21T05:20:08;12.6;;;11.4;;
38220;SDS011;24023;51.280;7.148;2022-07-21T05:25:07;12.6;;;11.4;;
38220;SDS011;24023;51.280;7.148;2022-07-21T05:30:09;13.0;;;11.6;;
38220;SDS011;24023;51.280;7.148;2022-07-21T05:35:10;13.0;;;11.6;;
38220;SDS011;24023;51.280;7.148;2022-07-21T05:40:08;13.0;;;11.6;;
38220;SDS011;24023;51.280;7.148;2022-07-21T05:45:09;13.2;;;11.9;;
38220;SDS011;24023;51.280;7.148;2022-07-21T05:50:08;13.2;;;11.9;;
38220;SDS011;24023;51.280;7.148;2022-07-21T05:55:06;13.1;;;11.9;;
38220;SDS011;24023;51.280;7.148;2022-07-21T06:00:11;13.1;;;11.9;;
38220;SDS011;24023;51.280;7.148;2022-07-21T06:05:08;13.1;;;11.9;;
38220;SDS011;24023;51.280;7.148;2022-07-21T06:10:08;13.4;;;12.1;;
38220;SDS011;24023;51.280;7.148;2022-07-21T06:15:07;13.4;;;12.1;;
38220;SDS011;24023;51.280;7.148;2022-07-21T06:20:09;12.1;;;10.9;;
38220;SDS011;24023;51.280;7.148;2022-07-21T06:25:06;12.1;;;10.9;;
38220;SDS011;24023;51.280;7.148;2022-07-21T06:30:09;12.1;;;10.9;;
38220;SDS011;24023;51.280;7.148;2022-07-21T06:35:06;12.5;;;11.3;;
38220;SDS011;24023;51.280;7.148;2022-07-21T06:40:08;12.5;;;11.3;;
38220;SDS011;24023;51.280;7.148;2022-07-21T06:45:10;12.0;;;10.8;;
38220;SDS011;24023;51.280;7.148;2022-07-21T06:50:08;12.0;;;10.8;;
38220;SDS011;24023;51.280;7.148;2022-07-21T06:55:07;11.6;;;10.5;;
38220;SDS011;24023;51.280;7.148;2022-07-21T07:00:11;9.8;;;8.8;;
38220;SDS011;24023;51.280;7.148;2022-07-21T07:05:06;9.8;;;8.8;;
38220;SDS011;24023;51.280;7.148;2022-07-21T07:10:08;9.6;;;8.7;;
38220;SDS011;24023;51.280;7.148;2022-07-21T07:15:08;9.6;;;8.7;;
38220;SDS011;24023;51.280;7.148;2022-07-21T07:20:08;9.6;;;8.7;;
38220;SDS011;24023;51.280;7.148;2022-07-21T07:25:06;10.0;;;9.0;;
38220;SDS011;24023;51.280;7.148;2022-07-21T07:30:09;10.0;;;9.0;;
38220;SDS011;24023;51.280;7.148;2022-07-21T07:35:07;8.5;;;7.7;;
38220;SDS011;24023;51.280;7.148;2022-07-21T07:40:09;8.5;;;7.7;;
38220;SDS011;24023;51.280;7.148;2022-07-21T07:45:10;8.5;;;7.7;;
38220;SDS011;24023;51.280;7.148;2022-07-21T07:50:09;9.8;;;8.6;;
38220;SDS011;24023;51.280;7.148;2022-07-21T07:55:10;9.8;;;8.6;;
38220;SDS011;24023;51.280;7.148;2022-07-21T08:00:12;8.4;;;7.5;;
38220;SDS011;24023;51.280;7.148;2022-07-21T08:05:07;8.4;;;7.5;;
38220;SDS011;24023;51.280;7.148;2022-07-21T08:10:09;7.7;;;6.7;;
38220;SDS011;24023;51.280;7.148;2022-07-21T08:15:08;7.7;;;6.7;;
38220;SDS011;24023;51.280;7.148;2022-07-21T08:20:07;7.7;;;6.7;;
38220;SDS011;24023;51.280;7.148;2022-07-21T08:25:07;8.6;;;6.7;;
38220;SDS011;24023;51.280;7.148;2022-07-21T08:30:10;6.2;;;5.2;;
38220;SDS011;24023;51.280;7.148;2022-07-21T08:35:09;6.2;;;5.2;;
38220;SDS011;24023;51.280;7.148;2022-07-21T08:40:08;6.2;;;5.2;;
38220;SDS011;24023;51.280;7.148;2022-07-21T08:45:11;5.8;;;5.0;;
38220;SDS011;24023;51.280;7.148;2022-07-21T08:50:07;5.8;;;5.0;;
38220;SDS011;24023;51.280;7.148;2022-07-21T08:55:06;6.5;;;5.4;;
38220;SDS011;24023;51.280;7.148;2022-07-21T09:00:10;6.5;;;5.4;;
38220;SDS011;24023;51.280;7.148;2022-07-21T09:05:08;6.5;;;5.4;;
38220;SDS011;24023;51.280;7.148;2022-07-21T09:10:09;5.7;;;5.2;;
38220;SDS011;24023;51.280;7.148;2022-07-21T09:15:12;5.7;;;5.2;;
38220;SDS011;24023;51.280;7.148;2022-07-21T09:20:20;6.6;;;5.7;;
38220;SDS011;24023;51.280;7.148;2022-07-21T09:25:06;6.6;;;5.7;;
38220;SDS011;24023;51.280;7.148;2022-07-21T09:30:10;6.5;;;5.7;;
38220;SDS011;24023;51.280;7.148;2022-07-21T09:35:07;6.5;;;5.7;;
38220;SDS011;24023;51.280;7.148;2022-07-21T09:40:09;5.9;;;5.0;;
38220;SDS011;24023;51.280;7.148;2022-07-21T09:45:10;5.9;;;5.0;;
38220;SDS011;24023;51.280;7.148;2022-07-21T09:50:08;5.9;;;5.0;;
38220;SDS011;24023;51.280;7.148;2022-07-21T09:55:07;5.9;;;5.0;;
38220;SDS011;24023;51.280;7.148;2022-07-21T10:00:13;6.3;;;5.7;;
38220;SDS011;24023;51.280;7.148;2022-07-21T10:05:07;6.3;;;5.7;;
38220;SDS011;24023;51.280;7.148;2022-07-21T10:10:08;6.3;;;5.7;;
38220;SDS011;24023;51.280;7.148;2022-07-21T10:15:08;6.1;;;5.4;;
38220;SDS011;24023;51.280;7.148;2022-07-21T10:20:08;6.7;;;4.6;;
38220;SDS011;24023;51.280;7.148;2022-07-21T10:25:06;6.7;;;4.6;;
38220;SDS011;24023;51.280;7.148;2022-07-21T10:30:09;6.7;;;4.6;;
38220;SDS011;24023;51.280;7.148;2022-07-21T10:35:25;7.1;;;5.7;;
38220;SDS011;24023;51.280;7.148;2022-07-21T10:40:10;8.9;;;6.1;;
38220;SDS011;24023;51.280;7.148;2022-07-21T10:45:16;8.9;;;6.1;;
38220;SDS011;24023;51.280;7.148;2022-07-21T10:50:08;7.9;;;5.4;;
38220;SDS011;24023;51.280;7.148;2022-07-21T10:55:13;7.9;;;5.4;;
38220;SDS011;24023;51.280;7.148;2022-07-21T11:00:20;6.1;;;4.5;;
38220;SDS011;24023;51.280;7.148;2022-07-21T11:05:06;6.1;;;4.5;;
38220;SDS011;24023;51.280;7.148;2022-07-21T11:10:16;6.1;;;4.5;;
38220;SDS011;24023;51.280;7.148;2022-07-21T11:15:07;6.1;;;4.5;;
38220;SDS011;24023;51.280;7.148;2022-07-21T11:20:12;7.9;;;6.0;;
38220;SDS011;24023;51.280;7.148;2022-07-21T11:25:06;7.9;;;6.0;;
38220;SDS011;24023;51.280;7.148;2022-07-21T11:30:10;7.9;;;6.0;;
38220;SDS011;24023;51.280;7.148;2022-07-21T11:35:07;7.9;;;6.0;;
38220;SDS011;24023;51.280;7.148;2022-07-21T11:40:09;8.0;;;6.5;;
38220;SDS011;24023;51.280;7.148;2022-07-21T11:45:09;8.0;;;6.5;;
38220;SDS011;24023;51.280;7.148;2022-07-21T11:50:09;9.3;;;8.2;;
38220;SDS011;24023;51.280;7.148;2022-07-21T11:55:07;9.3;;;8.2;;
38220;SDS011;24023;51.280;7.148;2022-07-21T12:00:11;11.3;;;8.0;;
38220;SDS011;24023;51.280;7.148;2022-07-21T12:05:08;11.3;;;8.0;;
38220;SDS011;24023;51.280;7.148;2022-07-21T12:10:08;8.7;;;7.5;;
38220;SDS011;24023;51.280;7.148;2022-07-21T12:15:10;8.7;;;7.5;;
38220;SDS011;24023;51.280;7.148;2022-07-21T12:20:08;8.1;;;7.1;;
38220;SDS011;24023;51.280;7.148;2022-07-21T12:25:09;8.1;;;7.1;;
38220;SDS011;24023;51.280;7.148;2022-07-21T12:30:10;8.1;;;7.1;;
38220;SDS011;24023;51.280;7.148;2022-07-21T12:35:15;8.2;;;7.4;;
38220;SDS011;24023;51.280;7.148;2022-07-21T12:40:10;7.0;;;5.8;;
38220;SDS011;24023;51.280;7.148;2022-07-21T12:45:12;7.0;;;5.8;;
38220;SDS011;24023;51.280;7.148;2022-07-21T12:50:08;5.6;;;5.0;;
38220;SDS011;24023;51.280;7.148;2022-07-21T12:55:07;5.6;;;5.0;;
38220;SDS011;24023;51.280;7.148;2022-07-21T13:00:11;5.6;;;5.0;;
38220;SDS011;24023;51.280;7.148;2022-07-21T13:05:06;5.6;;;5.1;;
38220;SDS011;24023;51.280;7.148;2022-07-21T13:10:08;5.0;;;3.5;;
38220;SDS011;24023;51.280;7.148;2022-07-21T13:15:08;5.0;;;3.5;;
38220;SDS011;24023;51.280;7.148;2022-07-21T13:20:08;3.7;;;3.0;;
38220;SDS011;24023;51.280;7.148;2022-07-21T13:25:08;3.7;;;3.0;;
38220;SDS011;24023;51.280;7.148;2022-07-21T13:30:09;3.7;;;3.0;;
38220;SDS011;24023;51.280;7.148;2022-07-21T13:35:06;2.6;;;2.0;;
38220;SDS011;24023;51.280;7.148;2022-07-21T13:40:08;2.6;;;2.0;;
38220;SDS011;24023;51.280;7.148;2022-07-21T13:45:11;1.7;;;1.3;;
38220;SDS011;24023;51.280;7.148;2022-07-21T13:50:08;1.7;;;1.3;;
38220;SDS011;24023;51.280;7.148;2022-07-21T13:55:06;1.7;;;1.3;;
38220;SDS011;24023;51.280;7.148;2022-07-21T14:00:12;1.4;;;1.3;;
38220;SDS011;24023;51.280;7.148;2022-07-21T14:05:06;1.4;;;1.3;;
38220;SDS011;24023;51.280;7.148;2022-07-21T14:10:08;5.7;;;4.5;;
38220;SDS011;24023;51.280;7.148;2022-07-21T14:15:08;5.7;;;4.5;;
38220;SDS011;24023;51.280;7.148;2022-07-21T14:20:08;5.9;;;5.2;;
38220;SDS011;24023;51.280;7.148;2022-07-21T14:25:22;5.9;;;5.2;;
38220;SDS011;24023;51.280;7.148;2022-07-21T14:30:09;3.7;;;3.3;;
38220;SDS011;24023;51.280;7.148;2022-07-21T14:35:06;3.7;;;3.3;;
38220;SDS011;24023;51.280;7.148;2022-07-21T14:40:08;3.0;;;2.7;;
38220;SDS011;24023;51.280;7.148;2022-07-21T14:45:10;3.0;;;2.7;;
38220;SDS011;24023;51.280;7.148;2022-07-21T14:50:07;3.0;;;2.7;;
38220;SDS011;24023;51.280;7.148;2022-07-21T14:55:07;3.1;;;2.8;;
38220;SDS011;24023;51.280;7.148;2022-07-21T15:00:11;3.1;;;2.8;;
38220;SDS011;24023;51.280;7.148;2022-07-21T15:05:06;4.5;;;4.1;;
38220;SDS011;24023;51.280;7.148;2022-07-21T15:10:08;4.5;;;4.1;;
38220;SDS011;24023;51.280;7.148;2022-07-21T15:15:08;4.5;;;4.1;;
38220;SDS011;24023;51.280;7.148;2022-07-21T15:20:08;5.2;;;4.7;;
38220;SDS011;24023;51.280;7.148;2022-07-21T15:25:10;5.2;;;4.7;;
38220;SDS011;24023;51.280;7.148;2022-07-21T15:30:11;3.4;;;3.1;;
38220;SDS011;24023;51.280;7.148;2022-07-21T15:35:07;3.4;;;3.1;;
38220;SDS011;24023;51.280;7.148;2022-07-21T15:40:08;4.5;;;4.0;;
38220;SDS011;24023;51.280;7.148;2022-07-21T15:45:10;4.5;;;4.0;;
38220;SDS011;24023;51.280;7.148;2022-07-21T15:50:08;4.5;;;4.0;;
38220;SDS011;24023;51.280;7.148;2022-07-21T15:55:07;5.2;;;4.7;;
38220;SDS011;24023;51.280;7.148;2022-07-21T16:00:12;5.2;;;4.7;;
38220;SDS011;24023;51.280;7.148;2022-07-21T16:05:06;5.5;;;5.0;;
38220;SDS011;24023;51.280;7.148;2022-07-21T16:10:08;5.5;;;5.0;;
38220;SDS011;24023;51.280;7.148;2022-07-21T16:15:07;5.5;;;5.0;;
38220;SDS011;24023;51.280;7.148;2022-07-21T16:20:10;5.9;;;5.3;;
38220;SDS011;24023;51.280;7.148;2022-07-21T16:25:07;5.9;;;5.3;;
38220;SDS011;24023;51.280;7.148;2022-07-21T16:30:10;5.4;;;3.6;;
38220;SDS011;24023;51.280;7.148;2022-07-21T16:35:06;5.4;;;3.6;;
38220;SDS011;24023;51.280;7.148;2022-07-21T16:40:08;4.6;;;3.6;;
38220;SDS011;24023;51.280;7.148;2022-07-21T16:45:10;4.6;;;3.6;;
38220;SDS011;24023;51.280;7.148;2022-07-21T16:50:07;4.6;;;3.6;;
38220;SDS011;24023;51.280;7.148;2022-07-21T16:55:08;3.2;;;2.9;;
38220;SDS011;24023;51.280;7.148;2022-07-21T17:00:12;3.2;;;2.9;;
38220;SDS011;24023;51.280;7.148;2022-07-21T17:05:06;3.4;;;3.1;;
38220;SDS011;24023;51.280;7.148;2022-07-21T17:10:08;5.1;;;4.1;;
38220;SDS011;24023;51.280;7.148;2022-07-21T17:15:08;5.1;;;4.1;;
38220;SDS011;24023;51.280;7.148;2022-07-21T17:20:08;4.2;;;3.4;;
38220;SDS011;24023;51.280;7.148;2022-07-21T17:25:07;4.2;;;3.4;;
38220;SDS011;24023;51.280;7.148;2022-07-21T17:30:09;4.2;;;3.4;;
38220;SDS011;24023;51.280;7.148;2022-07-21T17:35:07;4.2;;;3.8;;
38220;SDS011;24023;51.280;7.148;2022-07-21T17:40:08;4.2;;;3.8;;
38220;SDS011;24023;51.280;7.148;2022-07-21T17:45:09;5.1;;;3.5;;
38220;SDS011;24023;51.280;7.148;2022-07-21T17:50:08;5.1;;;3.5;;
38220;SDS011;24023;51.280;7.148;2022-07-21T17:55:06;5.1;;;3.5;;
38220;SDS011;24023;51.280;7.148;2022-07-21T18:00:11;4.5;;;3.5;;
38220;SDS011;24023;51.280;7.148;2022-07-21T18:05:07;4.5;;;3.5;;
38220;SDS011;24023;51.280;7.148;2022-07-21T18:10:07;3.1;;;2.8;;
38220;SDS011;24023;51.280;7.148;2022-07-21T18:15:07;3.1;;;2.8;;
38220;SDS011;24023;51.280;7.148;2022-07-21T18:20:07;3.9;;;3.2;;
38220;SDS011;24023;51.280;7.148;2022-07-21T18:25:07;3.9;;;3.2;;
38220;SDS011;24023;51.280;7.148;2022-07-21T18:30:09;3.9;;;3.2;;
38220;SDS011;24023;51.280;7.148;2022-07-21T18:35:06;4.1;;;3.7;;
38220;SDS011;24023;51.280;7.148;2022-07-21T18:40:08;4.1;;;3.7;;
38220;SDS011;24023;51.280;7.148;2022-07-21T18:45:10;3.9;;;3.5;;
38220;SDS011;24023;51.280;7.148;2022-07-21T18:50:08;3.9;;;3.5;;
38220;SDS011;24023;51.280;7.148;2022-07-21T18:55:07;3.9;;;3.5;;
38220;SDS011;24023;51.280;7.148;2022-07-21T19:00:12;3.6;;;3.3;;
38220;SDS011;24023;51.280;7.148;2022-07-21T19:05:06;3.6;;;3.3;;
38220;SDS011;24023;51.280;7.148;2022-07-21T19:10:08;3.5;;;3.2;;
38220;SDS011;24023;51.280;7.148;2022-07-21T19:15:08;3.5;;;3.2;;
38220;SDS011;24023;51.280;7.148;2022-07-21T19:20:08;3.5;;;3.2;;
38220;SDS011;24023;51.280;7.148;2022-07-21T19:25:06;4.0;;;3.0;;
38220;SDS011;24023;51.280;7.148;2022-07-21T19:30:10;4.0;;;3.0;;
38220;SDS011;24023;51.280;7.148;2022-07-21T19:35:07;3.3;;;2.6;;
38220;SDS011;24023;51.280;7.148;2022-07-21T19:40:08;3.3;;;2.6;;
38220;SDS011;24023;51.280;7.148;2022-07-21T19:45:10;3.3;;;2.6;;
38220;SDS011;24023;51.280;7.148;2022-07-21T19:50:09;3.3;;;2.9;;
38220;SDS011;24023;51.280;7.148;2022-07-21T19:55:07;3.3;;;2.9;;
38220;SDS011;24023;51.280;7.148;2022-07-21T20:00:11;3.7;;;2.9;;
38220;SDS011;24023;51.280;7.148;2022-07-21T20:05:06;3.7;;;2.9;;
38220;SDS011;24023;51.280;7.148;2022-07-21T20:10:09;3.8;;;3.5;;
38220;SDS011;24023;51.280;7.148;2022-07-21T20:15:08;3.8;;;3.5;;
38220;SDS011;24023;51.280;7.148;2022-07-21T20:20:08;3.8;;;3.5;;
38220;SDS011;24023;51.280;7.148;2022-07-21T20:25:06;3.3;;;3.0;;
38220;SDS011;24023;51.280;7.148;2022-07-21T20:30:10;3.3;;;3.0;;
38220;SDS011;24023;51.280;7.148;2022-07-21T20:35:07;3.1;;;2.8;;
38220;SDS011;24023;51.280;7.148;2022-07-21T20:40:07;3.1;;;2.8;;
38220;SDS011;24023;51.280;7.148;2022-07-21T20:45:11;3.1;;;2.8;;
38220;SDS011;24023;51.280;7.148;2022-07-21T20:50:08;2.6;;;2.4;;
38220;SDS011;24023;51.280;7.148;2022-07-21T20:55:06;2.6;;;2.4;;
38220;SDS011;24023;51.280;7.148;2022-07-21T21:00:10;5.0;;;4.3;;
38220;SDS011;24023;51.280;7.148;2022-07-21T21:05:06;5.0;;;4.3;;
38220;SDS011;24023;51.280;7.148;2022-07-21T21:10:08;8.5;;;7.8;;
38220;SDS011;24023;51.280;7.148;2022-07-21T21:15:08;8.5;;;7.8;;
38220;SDS011;24023;51.280;7.148;2022-07-21T21:20:07;15.6;;;14.2;;
38220;SDS011;24023;51.280;7.148;2022-07-21T21:25:06;15.6;;;14.2;;
38220;SDS011;24023;51.280;7.148;2022-07-21T21:30:09;12.8;;;11.6;;
38220;SDS011;24023;51.280;7.148;2022-07-21T21:35:06;12.8;;;11.6;;
38220;SDS011;24023;51.280;7.148;2022-07-21T21:40:08;8.2;;;7.5;;
38220;SDS011;24023;51.280;7.148;2022-07-21T21:45:09;8.2;;;7.5;;
38220;SDS011;24023;51.280;7.148;2022-07-21T21:50:07;2.7;;;2.5;;
38220;SDS011;24023;51.280;7.148;2022-07-21T21:55:06;2.7;;;2.5;;
38220;SDS011;24023;51.280;7.148;2022-07-21T22:00:20;2.2;;;2.0;;
38220;SDS011;24023;51.280;7.148;2022-07-21T22:05:08;2.2;;;2.0;;
38220;SDS011;24023;51.280;7.148;2022-07-21T22:10:09;8.1;;;7.4;;
38220;SDS011;24023;51.280;7.148;2022-07-21T22:15:08;8.1;;;7.4;;
38220;SDS011;24023;51.280;7.148;2022-07-21T22:20:08;9.8;;;8.9;;
38220;SDS011;24023;51.280;7.148;2022-07-21T22:25:07;9.8;;;8.9;;
38220;SDS011;24023;51.280;7.148;2022-07-21T22:30:09;7.4;;;6.7;;
38220;SDS011;24023;51.280;7.148;2022-07-21T22:35:07;7.4;;;6.7;;
38220;SDS011;24023;51.280;7.148;2022-07-21T22:40:07;12.5;;;11.4;;
38220;SDS011;24023;51.280;7.148;2022-07-21T22:45:10;12.5;;;11.4;;
38220;SDS011;24023;51.280;7.148;2022-07-21T22:50:08;13.0;;;11.8;;
38220;SDS011;24023;51.280;7.148;2022-07-21T22:55:06;13.0;;;11.8;;
38220;SDS011;24023;51.280;7.148;2022-07-21T23:00:10;10.0;;;9.2;;
38220;SDS011;24023;51.280;7.148;2022-07-21T23:05:06;10.0;;;9.2;;
38220;SDS011;24023;51.280;7.148;2022-07-21T23:10:07;10.3;;;9.4;;
38220;SDS011;24023;51.280;7.148;2022-07-21T23:15:07;10.3;;;9.4;;
38220;SDS011;24023;51.280;7.148;2022-07-21T23:20:08;10.3;;;9.4;;
38220;SDS011;24023;51.280;7.148;2022-07-21T23:25:06;11.8;;;10.9;;
38220;SDS011;24023;51.280;7.148;2022-07-21T23:30:09;11.8;;;10.9;;
38220;SDS011;24023;51.280;7.148;2022-07-21T23:35:07;12.8;;;11.7;;
38220;SDS011;24023;51.280;7.148;2022-07-21T23:40:07;18.4;;;16.8;;
38220;SDS011;24023;51.280;7.148;2022-07-21T23:45:09;18.4;;;16.8;;
38220;SDS011;24023;51.280;7.148;2022-07-21T23:50:07;16.7;;;15.3;;
38220;SDS011;24023;51.280;7.148;2022-07-21T23:55:06;16.7;;;15.3;;
